createdAt,value
2018-07-19T00:00:38.050Z,0.00
2018-07-19T00:01:38.045Z,0.00
2018-07-19T00:03:30.952Z,0.00
2018-07-19T00:04:30.971Z,0.00
2018-07-19T00:06:25.596Z,0.00
2018-07-19T00:07:25.586Z,0.00
2018-07-19T00:09:31.264Z,0.00
2018-07-19T00:10:31.265Z,0.00
2018-07-19T00:12:25.039Z,0.00
2018-07-19T00:13:25.040Z,0.00
2018-07-19T00:15:17.961Z,0.00
2018-07-19T00:16:17.992Z,0.00
2018-07-19T00:18:11.727Z,0.00
2018-07-19T00:19:11.743Z,0.00
2018-07-19T00:21:04.651Z,0.00
2018-07-19T00:22:04.665Z,0.00
2018-07-19T00:23:58.433Z,0.00
2018-07-19T00:24:58.436Z,0.00
2018-07-19T00:27:04.113Z,0.00
2018-07-19T00:28:04.115Z,0.00
2018-07-19T00:29:57.037Z,0.00
2018-07-19T00:30:57.038Z,0.00
2018-07-19T00:32:50.808Z,0.00
2018-07-19T00:33:50.837Z,0.00
2018-07-19T00:35:56.472Z,0.00
2018-07-19T00:36:56.488Z,0.00
2018-07-19T00:38:49.410Z,0.00
2018-07-19T00:39:49.411Z,0.00
2018-07-19T00:41:43.185Z,0.00
2018-07-19T00:42:43.182Z,0.00
2018-07-19T00:44:49.727Z,0.00
2018-07-19T00:45:49.708Z,0.00
2018-07-19T00:46:49.764Z,0.00
2018-07-19T00:47:49.768Z,0.00
2018-07-19T00:48:49.799Z,0.00
2018-07-19T00:49:49.829Z,0.00
2018-07-19T00:50:49.871Z,0.00
2018-07-19T00:51:49.886Z,0.00
2018-07-19T00:52:49.915Z,0.00
2018-07-19T00:53:49.944Z,0.00
2018-07-19T00:54:49.974Z,0.00
2018-07-19T00:55:50.004Z,0.00
2018-07-19T00:56:50.032Z,0.00
2018-07-19T00:57:50.062Z,0.00
2018-07-19T00:58:50.124Z,0.00
2018-07-19T00:59:50.121Z,0.00
2018-07-19T01:00:50.151Z,0.00
2018-07-19T01:01:50.183Z,0.00
2018-07-19T01:02:50.211Z,0.00
2018-07-19T01:03:50.239Z,0.00
2018-07-19T01:04:50.268Z,0.00
2018-07-19T01:05:50.298Z,0.00
2018-07-19T01:06:50.327Z,0.00
2018-07-19T01:07:50.357Z,0.00
2018-07-19T01:08:50.389Z,0.00
2018-07-19T01:09:50.416Z,0.00
2018-07-19T01:10:50.445Z,0.00
2018-07-19T01:11:50.516Z,0.00
2018-07-19T01:12:50.506Z,0.00
2018-07-19T01:13:50.533Z,0.00
2018-07-19T01:14:50.562Z,0.00
2018-07-19T01:15:50.592Z,0.00
2018-07-19T01:16:50.621Z,0.00
2018-07-19T01:17:50.651Z,0.00
2018-07-19T01:18:50.720Z,0.00
2018-07-19T01:19:50.710Z,0.00
2018-07-19T01:20:50.739Z,0.00
2018-07-19T01:21:50.769Z,0.00
2018-07-19T01:22:50.798Z,0.00
2018-07-19T01:23:50.828Z,0.00
2018-07-19T01:24:50.857Z,0.00
2018-07-19T01:25:50.886Z,0.00
2018-07-19T01:26:50.916Z,0.00
2018-07-19T01:27:50.981Z,0.00
2018-07-19T01:28:50.974Z,0.00
2018-07-19T01:29:51.004Z,0.00
2018-07-19T01:30:51.052Z,0.00
2018-07-19T01:31:51.064Z,0.00
2018-07-19T01:32:51.091Z,0.00
2018-07-19T01:33:51.121Z,0.00
2018-07-19T01:34:51.150Z,0.00
2018-07-19T01:35:51.180Z,0.00
2018-07-19T01:36:51.209Z,0.00
2018-07-19T01:37:51.240Z,0.00
2018-07-19T01:38:51.270Z,0.00
2018-07-19T01:39:51.300Z,0.00
2018-07-19T01:40:51.326Z,0.00
2018-07-19T01:41:51.356Z,0.00
2018-07-19T01:42:51.389Z,0.00
2018-07-19T01:43:51.458Z,0.00
2018-07-19T01:44:51.445Z,0.00
2018-07-19T01:45:51.474Z,0.00
2018-07-19T01:46:51.504Z,0.00
2018-07-19T01:47:51.534Z,0.00
2018-07-19T01:48:51.561Z,0.00
2018-07-19T01:49:51.591Z,0.00
2018-07-19T01:50:51.624Z,0.00
2018-07-19T01:51:51.652Z,0.00
2018-07-19T01:52:51.679Z,0.00
2018-07-19T01:53:51.709Z,0.00
2018-07-19T01:54:51.739Z,0.00
2018-07-19T01:55:51.769Z,0.00
2018-07-19T01:56:51.796Z,0.00
2018-07-19T01:57:51.826Z,0.00
2018-07-19T01:58:51.856Z,0.00
2018-07-19T01:59:51.886Z,0.00
2018-07-19T02:00:51.915Z,0.00
2018-07-19T02:01:51.945Z,0.00
2018-07-19T02:02:51.974Z,0.00
2018-07-19T02:03:52.004Z,0.00
2018-07-19T02:04:52.032Z,0.00
2018-07-19T02:05:52.062Z,0.00
2018-07-19T02:06:52.094Z,0.00
2018-07-19T02:07:52.122Z,0.00
2018-07-19T02:08:52.150Z,0.00
2018-07-19T02:09:52.184Z,0.00
2018-07-19T02:10:52.242Z,0.00
2018-07-19T02:11:52.239Z,0.00
2018-07-19T02:12:52.268Z,0.00
2018-07-19T02:13:52.297Z,0.00
2018-07-19T02:14:52.327Z,0.00
2018-07-19T02:15:52.357Z,5.63
2018-07-19T02:16:52.385Z,5.63
2018-07-19T02:17:52.454Z,5.63
2018-07-19T02:18:52.473Z,5.63
2018-07-19T02:19:52.475Z,5.63
2018-07-19T02:20:52.507Z,5.63
2018-07-19T02:21:52.533Z,5.63
2018-07-19T02:22:52.563Z,5.63
2018-07-19T02:23:52.593Z,5.63
2018-07-19T02:24:52.621Z,5.63
2018-07-19T02:25:52.654Z,5.63
2018-07-19T02:26:52.680Z,5.63
2018-07-19T02:27:52.710Z,5.63
2018-07-19T02:28:52.740Z,5.63
2018-07-19T02:29:52.769Z,5.63
2018-07-19T02:30:52.798Z,5.63
2018-07-19T02:31:52.828Z,5.63
2018-07-19T02:32:52.856Z,5.63
2018-07-19T02:33:52.886Z,5.63
2018-07-19T02:34:52.916Z,11.25
2018-07-19T02:35:52.945Z,11.25
2018-07-19T02:36:52.974Z,11.25
2018-07-19T02:37:53.004Z,11.25
2018-07-19T02:38:53.034Z,11.25
2018-07-19T02:39:53.063Z,11.25
2018-07-19T02:40:53.093Z,11.25
2018-07-19T02:41:53.126Z,11.25
2018-07-19T02:42:53.151Z,11.25
2018-07-19T02:43:53.239Z,16.88
2018-07-19T02:44:53.214Z,22.50
2018-07-19T02:45:53.240Z,16.88
2018-07-19T02:46:53.269Z,11.25
2018-07-19T02:47:53.299Z,16.88
2018-07-19T02:48:53.328Z,22.50
2018-07-19T02:49:53.360Z,22.50
2018-07-19T02:50:53.387Z,22.50
2018-07-19T02:51:53.417Z,16.88
2018-07-19T02:52:53.446Z,16.88
2018-07-19T02:53:53.476Z,16.88
2018-07-19T02:54:53.505Z,22.50
2018-07-19T02:55:53.536Z,22.50
2018-07-19T02:56:53.564Z,22.50
2018-07-19T02:57:53.595Z,28.13
2018-07-19T02:58:53.624Z,33.75
2018-07-19T02:59:53.653Z,45.00
2018-07-19T03:00:53.686Z,50.63
2018-07-19T03:01:53.714Z,50.63
2018-07-19T03:02:53.742Z,56.25
2018-07-19T03:03:53.771Z,56.25
2018-07-19T03:04:53.801Z,56.25
2018-07-19T03:05:53.833Z,56.25
2018-07-19T03:06:53.860Z,56.25
2018-07-19T03:07:53.890Z,56.25
2018-07-19T03:08:53.918Z,50.63
2018-07-19T03:09:53.949Z,45.00
2018-07-19T03:10:53.978Z,39.38
2018-07-19T03:11:54.010Z,28.13
2018-07-19T03:12:54.037Z,28.13
2018-07-19T03:13:54.067Z,22.50
2018-07-19T03:14:54.096Z,22.50
2018-07-19T03:15:54.126Z,22.50
2018-07-19T03:16:54.156Z,22.50
2018-07-19T03:17:54.188Z,22.50
2018-07-19T03:18:54.215Z,22.50
2018-07-19T03:19:54.245Z,28.13
2018-07-19T03:20:54.273Z,28.13
2018-07-19T03:21:54.303Z,28.13
2018-07-19T03:22:54.334Z,28.13
2018-07-19T03:23:54.383Z,28.13
2018-07-19T03:24:54.393Z,28.13
2018-07-19T03:25:54.431Z,28.13
2018-07-19T03:26:54.452Z,22.50
2018-07-19T03:27:54.482Z,22.50
2018-07-19T03:28:54.512Z,22.50
2018-07-19T03:29:54.541Z,28.13
2018-07-19T03:30:54.603Z,28.13
2018-07-19T03:31:54.604Z,22.50
2018-07-19T03:32:54.630Z,22.50
2018-07-19T03:33:54.661Z,22.50
2018-07-19T03:34:54.690Z,16.88
2018-07-19T03:35:54.720Z,11.25
2018-07-19T03:36:54.749Z,11.25
2018-07-19T03:37:54.779Z,11.25
2018-07-19T03:38:54.833Z,11.25
2018-07-19T03:39:54.838Z,11.25
2018-07-19T03:40:54.870Z,16.88
2018-07-19T03:41:54.897Z,11.25
2018-07-19T03:42:54.927Z,11.25
2018-07-19T03:43:54.959Z,11.25
2018-07-19T03:44:55.019Z,11.25
2018-07-19T03:45:55.017Z,11.25
2018-07-19T03:46:55.046Z,11.25
2018-07-19T03:47:55.076Z,11.25
2018-07-19T03:48:55.107Z,11.25
2018-07-19T03:49:55.137Z,11.25
2018-07-19T03:50:55.165Z,11.25
2018-07-19T03:51:55.194Z,11.25
2018-07-19T03:52:55.223Z,11.25
2018-07-19T03:53:55.253Z,11.25
2018-07-19T03:54:55.283Z,11.25
2018-07-19T03:55:55.314Z,11.25
2018-07-19T03:56:55.343Z,11.25
2018-07-19T03:57:55.373Z,11.25
2018-07-19T03:58:55.411Z,16.88
2018-07-19T03:59:55.433Z,16.88
2018-07-19T04:00:55.463Z,22.50
2018-07-19T04:01:55.510Z,22.50
2018-07-19T04:02:55.522Z,22.50
2018-07-19T04:03:55.551Z,28.13
2018-07-19T04:04:55.580Z,33.75
2018-07-19T04:05:55.613Z,33.75
2018-07-19T04:06:55.641Z,33.75
2018-07-19T04:07:55.671Z,39.38
2018-07-19T04:08:55.699Z,39.38
2018-07-19T04:09:55.730Z,45.00
2018-07-19T04:10:55.760Z,45.00
2018-07-19T04:11:55.790Z,50.63
2018-07-19T04:12:55.819Z,67.50
2018-07-19T04:13:55.850Z,78.75
2018-07-19T04:14:55.879Z,78.75
2018-07-19T04:15:55.908Z,78.75
2018-07-19T04:16:55.993Z,73.13
2018-07-19T04:17:55.968Z,56.25
2018-07-19T04:18:56.000Z,56.25
2018-07-19T04:19:56.028Z,67.50
2018-07-19T04:20:56.069Z,78.75
2018-07-19T04:21:56.088Z,78.75
2018-07-19T04:22:56.117Z,67.50
2018-07-19T04:23:56.147Z,61.88
2018-07-19T04:24:56.177Z,61.88
2018-07-19T04:25:56.207Z,84.38
2018-07-19T04:26:56.238Z,84.38
2018-07-19T04:27:56.267Z,84.38
2018-07-19T04:28:56.297Z,78.75
2018-07-19T04:29:56.327Z,56.25
2018-07-19T04:30:56.386Z,33.75
2018-07-19T04:31:56.387Z,22.50
2018-07-19T04:32:56.416Z,22.50
2018-07-19T04:33:56.446Z,16.88
2018-07-19T04:34:56.476Z,22.50
2018-07-19T04:35:56.527Z,22.50
2018-07-19T04:36:56.536Z,16.88
2018-07-19T04:37:56.567Z,16.88
2018-07-19T04:38:56.637Z,22.50
2018-07-19T04:39:56.626Z,28.13
2018-07-19T04:40:56.656Z,39.38
2018-07-19T04:41:56.686Z,33.75
2018-07-19T04:42:56.717Z,22.50
2018-07-19T04:43:56.747Z,22.50
2018-07-19T04:44:56.781Z,22.50
2018-07-19T04:45:56.837Z,39.38
2018-07-19T04:46:56.837Z,50.63
2018-07-19T04:47:56.867Z,39.38
2018-07-19T04:48:56.897Z,22.50
2018-07-19T04:49:56.926Z,16.88
2018-07-19T04:50:56.957Z,11.25
2018-07-19T04:51:56.987Z,11.25
2018-07-19T04:52:57.015Z,11.25
2018-07-19T04:53:57.045Z,11.25
2018-07-19T04:54:57.077Z,11.25
2018-07-19T04:55:57.108Z,11.25
2018-07-19T04:56:57.135Z,11.25
2018-07-19T04:57:57.165Z,16.88
2018-07-19T04:58:57.195Z,11.25
2018-07-19T04:59:57.226Z,11.25
2018-07-19T05:00:57.256Z,11.25
2018-07-19T05:01:57.336Z,11.25
2018-07-19T05:02:57.316Z,11.25
2018-07-19T05:03:57.348Z,11.25
2018-07-19T05:04:57.375Z,11.25
2018-07-19T05:05:57.405Z,11.25
2018-07-19T05:06:57.437Z,11.25
2018-07-19T05:07:57.469Z,16.88
2018-07-19T05:08:57.495Z,16.88
2018-07-19T05:09:57.524Z,28.13
2018-07-19T05:10:57.555Z,45.00
2018-07-19T05:11:57.585Z,56.25
2018-07-19T05:12:57.614Z,56.25
2018-07-19T05:13:57.677Z,56.25
2018-07-19T05:14:57.675Z,56.25
2018-07-19T05:15:57.741Z,56.25
2018-07-19T05:16:57.735Z,56.25
2018-07-19T05:17:57.764Z,50.63
2018-07-19T05:18:57.795Z,50.63
2018-07-19T05:19:57.830Z,45.00
2018-07-19T05:20:57.862Z,39.38
2018-07-19T05:21:57.885Z,45.00
2018-07-19T05:22:57.927Z,39.38
2018-07-19T05:23:57.946Z,33.75
2018-07-19T05:24:57.974Z,33.75
2018-07-19T05:25:58.006Z,39.38
2018-07-19T05:26:58.034Z,45.00
2018-07-19T05:27:58.065Z,39.38
2018-07-19T05:28:58.095Z,33.75
2018-07-19T05:29:58.140Z,39.38
2018-07-19T05:30:58.159Z,45.00
2018-07-19T05:31:58.198Z,39.38
2018-07-19T05:32:58.214Z,45.00
2018-07-19T05:33:58.245Z,39.38
2018-07-19T05:34:58.274Z,28.13
2018-07-19T05:35:58.305Z,22.50
2018-07-19T05:36:58.334Z,22.50
2018-07-19T05:37:58.380Z,22.50
2018-07-19T05:38:58.416Z,22.50
2018-07-19T05:39:58.427Z,22.50
2018-07-19T05:40:58.454Z,22.50
2018-07-19T05:41:58.487Z,22.50
2018-07-19T05:42:58.515Z,22.50
2018-07-19T05:43:58.588Z,22.50
2018-07-19T05:44:58.574Z,22.50
2018-07-19T05:45:58.627Z,28.13
2018-07-19T05:46:58.642Z,28.13
2018-07-19T05:47:58.665Z,22.50
2018-07-19T05:48:58.694Z,22.50
2018-07-19T05:49:58.724Z,16.88
2018-07-19T05:50:58.763Z,11.25
2018-07-19T05:51:58.786Z,11.25
2018-07-19T05:52:58.814Z,11.25
2018-07-19T05:53:58.844Z,5.63
2018-07-19T05:54:58.875Z,5.63
2018-07-19T05:55:58.936Z,5.63
2018-07-19T05:56:58.934Z,11.25
2018-07-19T05:57:58.974Z,11.25
2018-07-19T05:58:58.994Z,11.25
2018-07-19T05:59:59.025Z,11.25
2018-07-19T06:00:59.054Z,11.25
2018-07-19T06:01:59.085Z,11.25
2018-07-19T06:02:59.115Z,16.88
2018-07-19T06:03:59.145Z,16.88
2018-07-19T06:04:59.174Z,16.88
2018-07-19T06:05:59.204Z,16.88
2018-07-19T06:06:59.234Z,16.88
2018-07-19T06:07:59.267Z,22.50
2018-07-19T06:08:59.293Z,22.50
2018-07-19T06:09:59.324Z,16.88
2018-07-19T06:10:59.355Z,16.88
2018-07-19T06:11:59.387Z,16.88
2018-07-19T06:12:59.414Z,16.88
2018-07-19T06:13:59.445Z,16.88
2018-07-19T06:14:59.475Z,16.88
2018-07-19T06:15:59.548Z,16.88
2018-07-19T06:16:59.579Z,16.88
2018-07-19T06:17:59.564Z,16.88
2018-07-19T06:18:59.596Z,16.88
2018-07-19T06:19:59.624Z,16.88
2018-07-19T06:20:59.654Z,16.88
2018-07-19T06:21:59.684Z,16.88
2018-07-19T06:22:59.714Z,16.88
2018-07-19T06:23:59.744Z,16.88
2018-07-19T06:24:59.773Z,16.88
2018-07-19T06:25:59.804Z,16.88
2018-07-19T06:26:59.834Z,16.88
2018-07-19T06:27:59.864Z,16.88
2018-07-19T06:28:59.910Z,16.88
2018-07-19T06:29:59.924Z,16.88
2018-07-19T06:30:59.969Z,16.88
2018-07-19T06:31:59.985Z,16.88
2018-07-19T06:33:00.016Z,16.88
2018-07-19T06:34:00.047Z,11.25
2018-07-19T06:35:00.075Z,16.88
2018-07-19T06:36:00.106Z,16.88
2018-07-19T06:37:00.157Z,11.25
2018-07-19T06:38:00.168Z,11.25
2018-07-19T06:39:00.194Z,11.25
2018-07-19T06:40:00.224Z,11.25
2018-07-19T06:41:00.253Z,11.25
2018-07-19T06:42:00.285Z,11.25
2018-07-19T06:43:00.314Z,11.25
2018-07-19T06:44:00.345Z,11.25
2018-07-19T06:45:00.397Z,11.25
2018-07-19T06:46:00.404Z,11.25
2018-07-19T06:47:00.450Z,11.25
2018-07-19T06:48:00.464Z,11.25
2018-07-19T06:49:00.494Z,11.25
2018-07-19T06:50:00.526Z,11.25
2018-07-19T06:51:00.560Z,11.25
2018-07-19T06:52:00.584Z,11.25
2018-07-19T06:53:00.613Z,11.25
2018-07-19T06:54:00.644Z,11.25
2018-07-19T06:55:00.675Z,11.25
2018-07-19T06:56:00.708Z,11.25
2018-07-19T06:57:00.733Z,11.25
2018-07-19T06:58:00.764Z,5.63
2018-07-19T06:59:00.793Z,5.63
2018-07-19T07:00:00.831Z,5.63
2018-07-19T07:01:00.882Z,5.63
2018-07-19T07:02:00.883Z,5.63
2018-07-19T07:03:00.914Z,5.63
2018-07-19T07:04:00.944Z,5.63
2018-07-19T07:05:00.974Z,5.63
2018-07-19T07:06:01.033Z,5.63
2018-07-19T07:07:01.037Z,5.63
2018-07-19T07:08:01.083Z,5.63
2018-07-19T07:09:01.108Z,5.63
2018-07-19T07:10:01.124Z,5.63
2018-07-19T07:11:01.153Z,5.63
2018-07-19T07:12:01.184Z,5.63
2018-07-19T07:13:01.213Z,5.63
2018-07-19T07:14:01.263Z,5.63
2018-07-19T07:15:01.289Z,5.63
2018-07-19T07:16:01.309Z,5.63
2018-07-19T07:17:01.333Z,5.63
2018-07-19T07:18:01.363Z,5.63
2018-07-19T07:19:01.423Z,5.63
2018-07-19T07:20:01.424Z,5.63
2018-07-19T07:21:01.453Z,5.63
2018-07-19T07:22:01.484Z,5.63
2018-07-19T07:23:01.513Z,5.63
2018-07-19T07:24:01.582Z,5.63
2018-07-19T07:25:01.574Z,5.63
2018-07-19T07:26:01.603Z,5.63
2018-07-19T07:27:01.637Z,5.63
2018-07-19T07:28:01.663Z,5.63
2018-07-19T07:29:01.692Z,5.63
2018-07-19T07:30:01.753Z,5.63
2018-07-19T07:31:01.753Z,5.63
2018-07-19T07:32:01.783Z,5.63
2018-07-19T07:33:01.811Z,5.63
2018-07-19T07:34:01.857Z,5.63
2018-07-19T07:35:01.873Z,5.63
2018-07-19T07:36:01.904Z,5.63
2018-07-19T07:37:01.932Z,5.63
2018-07-19T07:38:01.965Z,5.63
2018-07-19T07:39:02.096Z,5.63
2018-07-19T07:40:02.028Z,5.63
2018-07-19T07:41:02.052Z,5.63
2018-07-19T07:42:02.083Z,5.63
2018-07-19T07:43:02.113Z,5.63
2018-07-19T07:44:02.165Z,5.63
2018-07-19T07:45:02.173Z,5.63
2018-07-19T07:46:02.224Z,5.63
2018-07-19T07:47:02.238Z,5.63
2018-07-19T07:48:02.263Z,5.63
2018-07-19T07:49:02.293Z,5.63
2018-07-19T07:50:02.326Z,5.63
2018-07-19T07:51:02.363Z,5.63
2018-07-19T07:52:02.382Z,5.63
2018-07-19T07:53:02.412Z,5.63
2018-07-19T07:54:02.443Z,5.63
2018-07-19T07:55:02.504Z,5.63
2018-07-19T07:56:02.506Z,5.63
2018-07-19T07:57:02.532Z,5.63
2018-07-19T07:58:02.562Z,5.63
2018-07-19T07:59:02.592Z,5.63
2018-07-19T08:00:02.624Z,5.63
2018-07-19T08:01:02.652Z,5.63
2018-07-19T08:02:02.683Z,5.63
2018-07-19T08:03:02.713Z,5.63
2018-07-19T08:04:02.743Z,5.63
2018-07-19T08:05:02.809Z,5.63
2018-07-19T08:06:02.803Z,5.63
2018-07-19T08:07:02.832Z,5.63
2018-07-19T08:08:02.862Z,5.63
2018-07-19T08:09:02.907Z,5.63
2018-07-19T08:10:02.922Z,5.63
2018-07-19T08:11:02.952Z,5.63
2018-07-19T08:12:02.982Z,5.63
2018-07-19T08:13:03.034Z,5.63
2018-07-19T08:14:03.042Z,5.63
2018-07-19T08:15:03.072Z,5.63
2018-07-19T08:16:03.102Z,5.63
2018-07-19T08:17:03.131Z,5.63
2018-07-19T08:18:03.166Z,5.63
2018-07-19T08:19:03.193Z,5.63
2018-07-19T08:20:03.222Z,5.63
2018-07-19T08:21:03.251Z,5.63
2018-07-19T08:22:03.282Z,5.63
2018-07-19T08:23:03.311Z,5.63
2018-07-19T08:24:03.342Z,5.63
2018-07-19T08:25:03.371Z,5.63
2018-07-19T08:26:03.425Z,5.63
2018-07-19T08:27:03.432Z,5.63
2018-07-19T08:28:03.461Z,5.63
2018-07-19T08:29:03.503Z,5.63
2018-07-19T08:30:03.549Z,5.63
2018-07-19T08:31:03.552Z,5.63
2018-07-19T08:32:03.581Z,5.63
2018-07-19T08:33:03.613Z,5.63
2018-07-19T08:34:03.641Z,5.63
2018-07-19T08:35:03.671Z,5.63
2018-07-19T08:36:03.727Z,5.63
2018-07-19T08:37:03.730Z,5.63
2018-07-19T08:38:03.763Z,5.63
2018-07-19T08:39:03.791Z,5.63
2018-07-19T08:40:03.823Z,5.63
2018-07-19T08:41:03.850Z,5.63
2018-07-19T08:42:03.881Z,5.63
2018-07-19T08:43:03.910Z,5.63
2018-07-19T08:44:03.941Z,5.63
2018-07-19T08:45:03.970Z,5.63
2018-07-19T08:46:04.023Z,5.63
2018-07-19T08:47:04.056Z,5.63
2018-07-19T08:48:04.089Z,5.63
2018-07-19T08:49:04.090Z,5.63
2018-07-19T08:50:04.123Z,5.63
2018-07-19T08:51:04.178Z,5.63
2018-07-19T08:52:04.181Z,5.63
2018-07-19T08:53:04.209Z,5.63
2018-07-19T08:54:04.239Z,5.63
2018-07-19T08:55:04.271Z,5.63
2018-07-19T08:56:04.300Z,5.63
2018-07-19T08:57:04.370Z,5.63
2018-07-19T08:58:04.360Z,5.63
2018-07-19T08:59:04.389Z,5.63
2018-07-19T09:00:04.440Z,5.63
2018-07-19T09:01:04.487Z,5.63
2018-07-19T09:02:04.479Z,5.63
2018-07-19T09:03:04.510Z,5.63
2018-07-19T09:04:04.540Z,5.63
2018-07-19T09:05:04.569Z,5.63
2018-07-19T09:06:04.599Z,5.63
2018-07-19T09:07:04.629Z,5.63
2018-07-19T09:08:04.659Z,5.63
2018-07-19T09:09:04.689Z,5.63
2018-07-19T09:10:04.719Z,5.63
2018-07-19T09:11:04.749Z,5.63
2018-07-19T09:12:04.779Z,5.63
2018-07-19T09:13:04.808Z,5.63
2018-07-19T09:14:04.883Z,5.63
2018-07-19T09:15:04.869Z,5.63
2018-07-19T09:16:04.899Z,5.63
2018-07-19T09:17:04.948Z,5.63
2018-07-19T09:18:04.962Z,5.63
2018-07-19T09:19:04.988Z,5.63
2018-07-19T09:20:05.019Z,5.63
2018-07-19T09:21:05.048Z,5.63
2018-07-19T09:22:05.078Z,5.63
2018-07-19T09:23:05.109Z,5.63
2018-07-19T09:24:05.138Z,5.63
2018-07-19T09:25:05.171Z,5.63
2018-07-19T09:26:05.197Z,5.63
2018-07-19T09:27:05.236Z,5.63
2018-07-19T09:28:05.257Z,5.63
2018-07-19T09:29:05.287Z,5.63
2018-07-19T09:30:05.318Z,5.63
2018-07-19T09:31:05.370Z,5.63
2018-07-19T09:32:05.377Z,5.63
2018-07-19T09:33:05.407Z,5.63
2018-07-19T09:34:05.437Z,5.63
2018-07-19T09:35:05.469Z,5.63
2018-07-19T09:36:05.497Z,5.63
2018-07-19T09:37:05.526Z,5.63
2018-07-19T09:38:05.556Z,5.63
2018-07-19T09:39:05.623Z,5.63
2018-07-19T09:40:05.617Z,5.63
2018-07-19T09:41:05.686Z,5.63
2018-07-19T09:42:05.676Z,5.63
2018-07-19T09:43:05.707Z,5.63
2018-07-19T09:44:05.763Z,5.63
2018-07-19T09:45:05.767Z,5.63
2018-07-19T09:46:05.800Z,5.63
2018-07-19T09:47:05.826Z,5.63
2018-07-19T09:48:05.856Z,5.63
2018-07-19T09:49:05.885Z,5.63
2018-07-19T09:50:05.915Z,5.63
2018-07-19T09:51:05.945Z,5.63
2018-07-19T09:52:05.976Z,5.63
2018-07-19T09:53:06.025Z,5.63
2018-07-19T09:54:06.035Z,5.63
2018-07-19T09:55:06.106Z,5.63
2018-07-19T09:56:06.099Z,5.63
2018-07-19T09:57:06.125Z,5.63
2018-07-19T09:58:06.154Z,5.63
2018-07-19T09:59:06.184Z,5.63
2018-07-19T10:00:06.215Z,5.63
2018-07-19T10:01:06.244Z,5.63
2018-07-19T10:02:06.274Z,5.63
2018-07-19T10:03:06.304Z,5.63
2018-07-19T10:04:06.334Z,5.63
2018-07-19T10:05:06.364Z,5.63
2018-07-19T10:06:06.394Z,5.63
2018-07-19T10:07:06.423Z,5.63
2018-07-19T10:08:06.453Z,5.63
2018-07-19T10:09:06.483Z,5.63
2018-07-19T10:10:06.540Z,5.63
2018-07-19T10:11:06.543Z,5.63
2018-07-19T10:12:06.622Z,5.63
2018-07-19T10:13:06.605Z,5.63
2018-07-19T10:14:06.635Z,5.63
2018-07-19T10:15:06.663Z,5.63
2018-07-19T10:16:06.693Z,5.63
2018-07-19T10:17:06.721Z,5.63
2018-07-19T10:18:06.752Z,5.63
2018-07-19T10:19:06.782Z,5.63
2018-07-19T10:20:06.812Z,5.63
2018-07-19T10:21:06.842Z,5.63
2018-07-19T10:22:06.872Z,5.63
2018-07-19T10:23:06.902Z,5.63
2018-07-19T10:24:06.932Z,5.63
2018-07-19T10:25:06.962Z,5.63
2018-07-19T10:26:06.992Z,5.63
2018-07-19T10:27:07.022Z,5.63
2018-07-19T10:28:07.052Z,5.63
2018-07-19T10:29:07.081Z,5.63
2018-07-19T10:30:07.111Z,5.63
2018-07-19T10:31:07.141Z,5.63
2018-07-19T10:32:07.360Z,5.63
2018-07-19T10:33:07.201Z,5.63
2018-07-19T10:34:07.268Z,5.63
2018-07-19T10:35:07.261Z,5.63
2018-07-19T10:36:07.291Z,5.63
2018-07-19T10:37:07.320Z,5.63
2018-07-19T10:38:07.383Z,5.63
2018-07-19T10:39:07.396Z,5.63
2018-07-19T10:40:07.413Z,5.63
2018-07-19T10:41:07.439Z,5.63
2018-07-19T10:42:07.470Z,5.63
2018-07-19T10:43:07.556Z,5.63
2018-07-19T10:44:07.531Z,5.63
2018-07-19T10:45:07.561Z,5.63
2018-07-19T10:46:07.625Z,5.63
2018-07-19T10:47:07.620Z,5.63
2018-07-19T10:48:07.650Z,5.63
2018-07-19T10:49:07.682Z,5.63
2018-07-19T10:50:07.709Z,5.63
2018-07-19T10:51:07.742Z,5.63
2018-07-19T10:52:07.771Z,5.63
2018-07-19T10:53:07.799Z,5.63
2018-07-19T10:54:07.829Z,5.63
2018-07-19T10:55:07.860Z,5.63
2018-07-19T10:56:07.889Z,5.63
2018-07-19T10:57:07.918Z,5.63
2018-07-19T10:58:07.948Z,5.63
2018-07-19T10:59:07.978Z,5.63
2018-07-19T11:00:08.023Z,5.63
2018-07-19T11:01:08.038Z,5.63
2018-07-19T11:02:08.072Z,5.63
2018-07-19T11:03:08.099Z,5.63
2018-07-19T11:04:08.130Z,5.63
2018-07-19T11:05:08.192Z,5.63
2018-07-19T11:06:08.188Z,5.63
2018-07-19T11:07:08.217Z,5.63
2018-07-19T11:08:08.247Z,5.63
2018-07-19T11:09:08.277Z,5.63
2018-07-19T11:10:08.333Z,5.63
2018-07-19T11:11:08.337Z,5.63
2018-07-19T11:12:08.391Z,5.63
2018-07-19T11:13:08.397Z,5.63
2018-07-19T11:14:08.427Z,5.63
2018-07-19T11:15:08.457Z,5.63
2018-07-19T11:16:08.487Z,5.63
2018-07-19T11:17:08.516Z,5.63
2018-07-19T11:18:08.550Z,5.63
2018-07-19T11:19:08.617Z,5.63
2018-07-19T11:20:08.612Z,5.63
2018-07-19T11:21:08.636Z,5.63
2018-07-19T11:22:08.666Z,5.63
2018-07-19T11:23:08.696Z,5.63
2018-07-19T11:24:08.727Z,5.63
2018-07-19T11:25:08.756Z,5.63
2018-07-19T11:26:08.785Z,5.63
2018-07-19T11:27:08.815Z,5.63
2018-07-19T11:28:08.846Z,5.63
2018-07-19T11:29:08.875Z,5.63
2018-07-19T11:30:08.904Z,5.63
2018-07-19T11:31:08.935Z,5.63
2018-07-19T11:32:08.994Z,5.63
2018-07-19T11:33:08.994Z,5.63
2018-07-19T11:34:09.025Z,5.63
2018-07-19T11:35:09.057Z,5.63
2018-07-19T11:36:09.121Z,5.63
2018-07-19T11:37:09.114Z,5.63
2018-07-19T11:38:09.144Z,5.63
2018-07-19T11:39:09.175Z,5.63
2018-07-19T11:40:09.212Z,5.63
2018-07-19T11:41:09.234Z,5.63
2018-07-19T11:42:09.264Z,5.63
2018-07-19T11:43:09.294Z,5.63
2018-07-19T11:44:09.325Z,5.63
2018-07-19T11:45:09.353Z,0.00
2018-07-19T11:46:09.385Z,0.00
2018-07-19T11:47:09.413Z,5.63
2018-07-19T11:48:09.450Z,0.00
2018-07-19T11:49:09.472Z,5.63
2018-07-19T11:50:09.503Z,5.63
2018-07-19T11:51:09.532Z,5.63
2018-07-19T11:52:09.563Z,5.63
2018-07-19T11:53:09.592Z,5.63
2018-07-19T11:54:09.622Z,5.63
2018-07-19T11:55:09.653Z,5.63
2018-07-19T11:56:09.683Z,5.63
2018-07-19T11:57:09.712Z,5.63
2018-07-19T11:58:09.742Z,5.63
2018-07-19T11:59:09.805Z,5.63
2018-07-19T12:00:09.802Z,5.63
2018-07-19T12:01:09.832Z,5.63
2018-07-19T12:02:09.862Z,5.63
2018-07-19T12:03:09.892Z,5.63
2018-07-19T12:04:09.921Z,5.63
2018-07-19T12:05:09.951Z,5.63
2018-07-19T12:06:09.981Z,0.00
2018-07-19T12:07:10.011Z,0.00
2018-07-19T12:08:10.042Z,5.63
2018-07-19T12:09:10.079Z,5.63
2018-07-19T12:10:10.101Z,5.63
2018-07-19T12:11:10.130Z,5.63
2018-07-19T12:12:10.161Z,5.63
2018-07-19T12:13:10.190Z,5.63
2018-07-19T12:14:10.219Z,5.63
2018-07-19T12:15:10.250Z,5.63
2018-07-19T12:16:10.280Z,5.63
2018-07-19T12:17:10.309Z,5.63
2018-07-19T12:18:10.374Z,5.63
2018-07-19T12:19:10.370Z,5.63
2018-07-19T12:20:10.400Z,5.63
2018-07-19T12:21:10.429Z,5.63
2018-07-19T12:22:10.459Z,5.63
2018-07-19T12:23:10.489Z,5.63
2018-07-19T12:24:10.519Z,5.63
2018-07-19T12:25:10.552Z,5.63
2018-07-19T12:26:10.578Z,5.63
2018-07-19T12:27:10.643Z,5.63
2018-07-19T12:28:10.639Z,5.63
2018-07-19T12:29:10.668Z,5.63
2018-07-19T12:30:10.699Z,5.63
2018-07-19T12:31:10.782Z,5.63
2018-07-19T12:32:10.758Z,5.63
2018-07-19T12:33:10.821Z,5.63
2018-07-19T12:34:10.818Z,5.63
2018-07-19T12:35:10.847Z,5.63
2018-07-19T12:36:10.877Z,5.63
2018-07-19T12:37:10.907Z,5.63
2018-07-19T12:38:10.939Z,5.63
2018-07-19T12:39:10.968Z,5.63
2018-07-19T12:40:10.998Z,5.63
2018-07-19T12:41:11.027Z,5.63
2018-07-19T12:42:11.071Z,5.63
2018-07-19T12:43:11.087Z,5.63
2018-07-19T12:44:11.118Z,5.63
2018-07-19T12:45:11.146Z,5.63
2018-07-19T12:46:11.176Z,5.63
2018-07-19T12:47:11.206Z,5.63
2018-07-19T12:48:11.237Z,5.63
2018-07-19T12:49:11.265Z,5.63
2018-07-19T12:50:11.297Z,5.63
2018-07-19T12:51:11.327Z,5.63
2018-07-19T12:52:11.406Z,5.63
2018-07-19T12:53:11.385Z,5.63
2018-07-19T12:54:11.419Z,5.63
2018-07-19T12:55:11.446Z,5.63
2018-07-19T12:56:11.476Z,5.63
2018-07-19T12:57:11.505Z,5.63
2018-07-19T12:58:11.536Z,5.63
2018-07-19T12:59:11.565Z,5.63
2018-07-19T13:00:11.650Z,5.63
2018-07-19T13:01:11.624Z,5.63
2018-07-19T13:02:11.658Z,5.63
2018-07-19T13:03:11.685Z,5.63
2018-07-19T13:04:11.739Z,5.63
2018-07-19T13:05:11.748Z,5.63
2018-07-19T13:06:11.775Z,5.63
2018-07-19T13:07:11.805Z,5.63
2018-07-19T13:08:11.861Z,5.63
2018-07-19T13:09:11.863Z,5.63
2018-07-19T13:10:11.895Z,5.63
2018-07-19T13:11:11.941Z,5.63
2018-07-19T13:12:11.956Z,5.63
2018-07-19T13:13:11.983Z,5.63
2018-07-19T13:14:12.041Z,5.63
2018-07-19T13:15:12.072Z,5.63
2018-07-19T13:16:12.075Z,5.63
2018-07-19T13:17:12.104Z,5.63
2018-07-19T13:18:12.134Z,5.63
2018-07-19T13:19:12.164Z,5.63
2018-07-19T13:20:12.199Z,5.63
2018-07-19T13:21:12.223Z,5.63
2018-07-19T13:22:12.343Z,5.63
2018-07-19T13:23:12.285Z,5.63
2018-07-19T13:24:12.377Z,5.63